Weather at Elma Municipal Airport [CLOSED]

Public forecast

Using degrees Fahrenheit for public forecast. Weather courtesy of forecast.io.

Closest aviation weather report (METAR) to Elma Municipal Airport

Closest report is Sanderson Field, 18.6 nm (34.4 km) NE.

2024/07/24 05:53 (retrieved 1 hour ago)

KSHN 240553Z AUTO 25007KT 10SM CLR 16/09 A3007 RMK AO2 SLP183 T01560094 10261 20156 53009

Closest aviation forecast (TAF) to Elma Municipal Airport

Closest forecast is Bowerman Airport, 20.8 nm (38.5 km) W.

2024/07/24 06:51 (retrieved 3 minutes ago)

TAF KHQM 240549Z 2406/2506 29007KT P6SM SKC FM241100 26003KT P6SM OVC009 FM242000 26013KT P6SM BKN050 FM250000 29009KT P6SM SCT150